Time;durP1;ratioP1;P1;durP2;ratioP2;P2;SDS_P1;SDS_P2;PMS_P1;PMS_P2;Temp;Humidity;BMP_temperature;BMP_pressure;BME280_temperature;BME280_humidity;BME280_pressure;Samples;Min_cycle;Max_cycle;Signal;HPM_P1;HPM_P2
2023/10/18 15:15:27;;;;;;;558.67;462.73;;;;;;;;;;6569735;27;20601;-67
2023/10/18 15:18:37;;;;;;;687.43;621.00;;;;;;;;;;6547606;28;20190;-68
2023/10/18 15:21:47;;;;;;;760.30;692.00;;;;;;;;;;6540257;28;20610;-67
2023/10/18 15:24:59;;;;;;;750.43;682.33;;;;;;;;;;6540492;28;20677;-68
2023/10/18 15:28:09;;;;;;;834.13;762.17;;;;;;;;;;6540624;28;20193;-67
2023/10/18 15:31:21;;;;;;;852.10;780.10;;;;;;;;;;6547591;28;20637;-67
2023/10/18 15:34:33;;;;;;;863.03;790.83;;;;;;;;;;6551513;28;20248;-67
2023/10/18 15:37:44;;;;;;;877.97;805.47;;;;;;;;;;6534936;28;20213;-67
2023/10/18 15:40:54;;;;;;;909.40;835.50;;;;;;;;;;6543049;28;20229;-67
2023/10/18 15:44:05;;;;;;;930.37;853.40;;;;;;;;;;6511735;28;77949;-67
2023/10/18 15:46:36;;;;;;;989.13;910.07;;;;;;;;;;4181457;28;20890;-66
2023/10/18 15:48:36;;;;;;;981.77;903.47;;;;;;;;;;4152432;28;20334;-68
2023/10/18 15:50:51;;;;;;;1018.13;937.73;;;;;;;;;;685110;27;20561;-66
2023/10/18 15:51:11;;;;;;;1093.80;999.90;;;;;;;;;;696915;28;1357;-67
2023/10/18 15:51:35;;;;;;;1062.33;985.40;;;;;;;;;;696273;28;969;-69
2023/10/18 15:51:56;;;;;;;1078.45;999.75;;;;;;;;;;696463;28;1896;-68
2023/10/18 15:52:17;;;;;;;1135.83;999.90;;;;;;;;;;695491;28;10287;-70
2023/10/18 15:52:37;;;;;;;1182.97;999.90;;;;;;;;;;695027;28;10186;-70
2023/10/18 16:00:23;;;;;;;611.10;556.40;;;;;;;;;;701732;27;19970;-64
2023/10/18 16:00:44;;;;;;;;;;;;;;;;;;689583;28;10319;-65
2023/10/18 16:01:04;;;;;;;;;;;;;;;;;;687090;28;10043;-66
2023/10/18 16:01:24;;;;;;;;;;;;;;;;;;688696;28;61450;-65
2023/10/18 16:01:44;;;;;;;;;;;;;;;;;;692653;28;64555;-65
2023/10/18 16:03:02;;;;;;;;;;;;;;;;;;2075268;27;20066;-72
2023/10/18 16:04:45;;;;;;;;;;;;;;;;;;2081660;27;19921;-73
2023/10/18 16:05:45;;;;;;;;;;;;;;;;;;2075216;28;62952;-72
2023/10/18 16:06:45;;;;;;;;;;;;;;;;;;2075223;28;20415;-72
2023/10/18 16:12:25;;;;;;;29.10;18.73;;;;;;;;;;2095127;27;20325;-83
2023/10/18 16:13:25;;;;;;;17.23;14.75;;;;;;;;;;2088361;28;20553;-81
2023/10/18 16:14:28;;;;;;;;;;;;;;;;;;2087739;28;20219;-81
2023/10/18 16:15:34;;;;;;;;;;;;;;;;;;2093141;28;19904;-84
2023/10/18 16:16:34;;;;;;;;;;;;;;;;;;2086112;28;20365;-78
2023/10/18 16:17:35;;;;;;;;;;;;;;;;;;2077756;28;19917;-84
2023/10/18 16:18:36;;;;;;;;;;;;;;;;;;2088669;28;20346;-84
2023/10/18 16:24:05;;;;;;;;;;;;;;;;;;10392645;27;68276;-82
2023/10/18 16:29:59;;;;;;;;;;;;;;;;;;10452560;28;19917;-86
2023/10/18 16:34:59;;;;;;;;;;;;;;;;;;10451894;28;19913;-85
2023/10/18 16:40:03;;;;;;;;;;;;;;;;;;10420877;28;75551;-84
2023/10/18 16:42:20;;;;;;;;;;;;;;;;;;4186263;27;73267;-83
2023/10/18 16:45:00;;;;;;;;;;;;;;;;;;4177303;27;70841;-85
2023/10/18 16:47:01;;;;;;;;;;;;;;;;;;4164220;28;19925;-67
2023/10/18 16:49:03;;;;;;;;;;;;;;;;;;4162799;28;19963;-69
2023/10/18 16:56:59;;;;;;;;;;;;;;;;;;5070536;28;19917;-69
2023/10/18 16:59:25;;;;;;;;;;;;;;;;;;5067830;28;20015;-69
2023/10/18 17:01:51;;;;;;;;;;;;;;;;;;5011963;28;19914;-70
2023/10/18 17:04:17;;;;;;;;;;;;;;;;;;5012256;28;20359;-69
2023/10/18 17:06:44;;;;;;;;;;;;;;;;;;5011837;28;19917;-69
2023/10/18 17:09:16;;;;;;;;;;;;;;;;;;5011453;28;19917;-69
2023/10/18 17:12:55;;;;;;;3.70;3.30;;;;;;;;;;5042192;27;2496088;-72
2023/10/18 17:15:21;;;;;;;3.20;3.00;;;;;;;;;;5111439;28;20162;-72
2023/10/18 17:17:49;;;;;;;3.40;3.10;;;;;;;;;;5111569;28;20189;-76
2023/10/18 17:20:15;;;;;;;3.60;3.30;;;;;;;;;;5101748;28;20177;-75
2023/10/18 17:22:45;;;;;;;4.43;3.38;;;;;;;;;;5052013;28;20187;-75
2023/10/18 17:25:14;;;;;;;3.30;3.03;;;;;;;;;;5030589;28;20176;-74
2023/10/18 17:27:40;;;;;;;3.45;3.15;;;;;;;;;;5048899;28;20223;-75
2023/10/18 17:30:11;;;;;;;3.70;3.40;;;;;;;;;;5050811;28;20636;-74
2023/10/18 17:32:39;;;;;;;4.00;3.60;;;;;;;;;;5033480;28;71641;-76
2023/10/18 17:41:35;;;;;;;4.20;3.90;;;;;;;;;;16940562;27;20312;-75
2023/10/18 17:49:37;;;;;;;3.10;2.90;;;;;;;;;;16799812;28;75412;-75
2023/10/18 17:57:41;;;;;;;2.40;2.30;;;;;;;;;;16594840;28;71859;-76
2023/10/18 18:21:01;;;;;;;;;;;;;;;;;;16655959;27;19976;-61
2023/10/18 18:29:02;;;;;;;;;;;;;;;;;;16594051;28;19913;-62
2023/10/18 18:37:04;;;;;;;;;;;;;;;;;;16594424;28;20021;-64
2023/10/18 18:51:11;;;;;;;;;;;;;;;;;;16790430;28;19948;-62
2023/10/18 19:10:37;;;;;;;;;;;;;;;;;;16721912;27;20307;-62
2023/10/18 19:20:52;;;;;;;;;;;;;;;;;;16724290;27;70949;-66
2023/10/18 19:29:09;;;;;;;;;;;;;;;;;;13867118;27;20112;-67
2023/10/18 19:30:31;;;;;;;;;;;;;;;;;;984391;27;2035044;-66
2023/10/18 19:31:03;;;;;;;;;;;;;;;;;;1061285;27;19975;-66
2023/10/18 19:31:33;;;;;;;;;;;;;;;;;;1061890;27;20002;-67
2023/10/18 19:32:04;;;;;;;;;;;;;;;;;;1061643;27;19912;-66
2023/10/18 19:32:34;;;;;;;;;;;;;;;;;;1061354;27;20399;-65
2023/10/18 19:33:04;;;;;;;;;;;;;;;;;;1061174;27;19911;-67
2023/10/18 19:33:34;;;;;;;;;;;;;;;;;;1057539;27;73729;-64
2023/10/18 19:34:04;;;;;;;;;;;;;;;;;;1061443;28;20328;-64
2023/10/18 19:34:35;;;;;;;;;;;;;;;;;;1050544;28;71127;-66
2023/10/18 19:35:08;;;;;;;;;;;;;;;;;;1047905;28;109917;-64
2023/10/18 19:35:40;;;;;;;;;;;;;;;;;;1050872;28;68414;-67
2023/10/18 19:42:03;;;;;;;;;;;;;;;;;;5089582;27;19916;-64
2023/10/18 19:44:28;;;;;;;;;;;;;;;;;;5091912;28;20379;-64
2023/10/18 19:46:53;;;;;;;;;;;;;;;;;;5091769;28;19909;-65
2023/10/18 19:49:19;;;;;;;;;;;;;;;;;;5092012;28;20269;-67
2023/10/18 19:51:44;;;;;;;;;;;;;;;;;;5091786;28;19916;-64
2023/10/18 19:54:12;;;;;;;;;;;;;;;;;;5091562;28;19912;-66
2023/10/18 19:56:37;;;;;;;;;;;;;;;;;;5091875;28;20396;-65
2023/10/18 19:59:03;;;;;;;;;;;;;;;;;;5091480;28;19947;-67
2023/10/18 20:01:28;;;;;;;;;;;;;;;;;;5091108;28;19917;-65
2023/10/18 20:03:54;;;;;;;;;;;;;;;;;;5091132;28;19913;-64
2023/10/18 20:06:20;;;;;;;;;;;;;;;;;;5091338;28;19908;-64
2023/10/18 20:08:46;;;;;;;;;;;;;;;;;;5091592;28;19908;-64
2023/10/18 20:11:12;;;;;;;;;;;;;;;;;;5091277;28;19915;-65
2023/10/18 20:13:37;;;;;;;;;;;;;;;;;;5091191;28;19995;-65
2023/10/18 20:16:02;;;;;;;;;;;;;;;;;;5092020;28;19909;-65
2023/10/18 20:18:30;;;;;;;;;;;;;;;;;;5091380;28;19991;-65
2023/10/18 20:20:55;;;;;;;;;;;;;;;;;;5091028;28;19920;-64
2023/10/18 20:23:20;;;;;;;;;;;;;;;;;;5091344;28;20297;-65
2023/10/18 20:25:45;;;;;;;;;;;;;;;;;;5091357;28;19908;-65
2023/10/18 20:28:12;;;;;;;;;;;;;;;;;;5091214;28;19916;-65
2023/10/18 20:30:37;;;;;;;;;;;;;;;;;;5090608;28;20349;-65
2023/10/18 20:33:02;;;;;;;;;;;;;;;;;;5090582;28;19912;-65
2023/10/18 20:35:28;;;;;;;;;;;;;;;;;;5090514;28;19909;-65
2023/10/18 20:37:53;;;;;;;;;;;;;;;;;;5090716;28;19912;-65
2023/10/18 20:40:18;;;;;;;;;;;;;;;;;;5090696;28;19982;-66
2023/10/18 20:42:45;;;;;;;;;;;;;;;;;;5091156;28;19919;-65
2023/10/18 20:45:11;;;;;;;;;;;;;;;;;;5090249;28;19916;-65
2023/10/18 20:47:37;;;;;;;;;;;;;;;;;;5091077;28;19908;-66
2023/10/18 20:50:08;;;;;;;;;;;;;;;;;;5090482;28;19960;-65
2023/10/18 20:52:33;;;;;;;;;;;;;;;;;;5081251;28;19913;-65
2023/10/18 20:54:58;;;;;;;;;;;;;;;;;;5076532;28;19915;-65
2023/10/18 20:57:24;;;;;;;;;;;;;;;;;;5076502;28;19969;-65
2023/10/18 20:59:49;;;;;;;;;;;;;;;;;;5076750;28;20007;-65
2023/10/18 21:02:17;;;;;;;;;;;;;;;;;;5076479;28;19935;-66
2023/10/18 21:04:44;;;;;;;;;;;;;;;;;;5076410;28;19915;-65
2023/10/18 21:07:09;;;;;;;;;;;;;;;;;;5076962;28;19916;-65
2023/10/18 21:09:35;;;;;;;;;;;;;;;;;;5076813;28;19909;-65
2023/10/18 21:12:00;;;;;;;;;;;;;;;;;;5076551;28;19970;-65
2023/10/18 21:14:26;;;;;;;;;;;;;;;;;;5076517;28;19909;-65
2023/10/18 21:16:51;;;;;;;;;;;;;;;;;;5076457;28;20003;-64
2023/10/18 21:19:18;;;;;;;;;;;;;;;;;;5077044;28;19959;-64
2023/10/18 21:21:44;;;;;;;;;;;;;;;;;;5076307;28;19917;-64
2023/10/18 21:24:09;;;;;;;;;;;;;;;;;;5076405;28;19913;-64
2023/10/18 21:26:34;;;;;;;;;;;;;;;;;;5076379;28;19908;-64
2023/10/18 21:28:59;;;;;;;;;;;;;;;;;;5077028;28;19908;-64
2023/10/18 21:31:25;;;;;;;;;;;;;;;;;;5076181;28;19961;-64
2023/10/18 21:33:50;;;;;;;;;;;;;;;;;;5075952;28;19912;-64
2023/10/18 21:36:15;;;;;;;;;;;;;;;;;;5076069;28;19912;-64
2023/10/18 21:38:40;;;;;;;;;;;;;;;;;;5076965;28;19915;-64
2023/10/18 21:41:05;;;;;;;;;;;;;;;;;;5076347;28;20337;-64
2023/10/18 21:43:31;;;;;;;;;;;;;;;;;;5076824;28;19912;-64
2023/10/18 21:45:56;;;;;;;;;;;;;;;;;;5076511;28;20244;-64
2023/10/18 21:48:21;;;;;;;;;;;;;;;;;;5075715;28;20011;-65
2023/10/18 21:50:46;;;;;;;;;;;;;;;;;;5075844;28;20246;-64
2023/10/18 21:53:11;;;;;;;;;;;;;;;;;;5076432;28;19915;-64
2023/10/18 21:55:36;;;;;;;;;;;;;;;;;;5075544;28;19909;-64
2023/10/18 21:58:01;;;;;;;;;;;;;;;;;;5075761;28;20331;-64
2023/10/18 22:03:01;;;;;;;;;;;;;;;;;;5075821;28;19912;-64
2023/10/18 22:05:26;;;;;;;;;;;;;;;;;;5075835;28;19912;-64
2023/10/18 22:07:52;;;;;;;;;;;;;;;;;;5075643;28;19909;-64
2023/10/18 22:10:22;;;;;;;;;;;;;;;;;;5076524;28;19915;-64
2023/10/18 22:12:47;;;;;;;;;;;;;;;;;;5076116;28;19924;-64
2023/10/18 22:15:13;;;;;;;;;;;;;;;;;;5075443;28;20266;-64
2023/10/18 22:17:43;;;;;;;;;;;;;;;;;;5075341;28;19969;-64
2023/10/18 22:20:10;;;;;;;;;;;;;;;;;;5075867;28;19923;-64
2023/10/18 22:22:40;;;;;;;;;;;;;;;;;;5075522;28;19948;-64
2023/10/18 22:25:07;;;;;;;;;;;;;;;;;;5075201;28;19915;-64
2023/10/18 22:27:37;;;;;;;;;;;;;;;;;;5075965;28;20257;-64
2023/10/18 22:30:09;;;;;;;;;;;;;;;;;;5075102;28;19908;-64
2023/10/18 22:32:34;;;;;;;;;;;;;;;;;;5075372;28;19916;-65
2023/10/18 22:34:59;;;;;;;;;;;;;;;;;;5075061;28;19959;-65
2023/10/18 22:37:24;;;;;;;;;;;;;;;;;;5074928;28;19908;-65
2023/10/18 22:40:01;;;;;;;;;;;;;;;;;;5074317;28;19913;-64
2023/10/18 22:42:29;;;;;;;;;;;;;;;;;;5075527;28;19915;-64
2023/10/18 22:47:37;;;;;;;;;;;;;;;;;;5074489;28;19909;-65
2023/10/18 22:50:09;;;;;;;;;;;;;;;;;;5075577;28;19908;-65
2023/10/18 22:52:44;;;;;;;;;;;;;;;;;;5074451;28;19913;-65
2023/10/18 22:55:22;;;;;;;;;;;;;;;;;;5074376;28;19952;-65
2023/10/18 22:57:47;;;;;;;;;;;;;;;;;;5074102;28;20312;-64
2023/10/18 23:00:13;;;;;;;;;;;;;;;;;;5074686;28;19924;-63
2023/10/18 23:02:38;;;;;;;;;;;;;;;;;;5074478;28;19913;-63
2023/10/18 23:05:11;;;;;;;;;;;;;;;;;;5074549;28;19913;-64
2023/10/18 23:07:38;;;;;;;;;;;;;;;;;;5074481;28;20375;-64
2023/10/18 23:10:08;;;;;;;;;;;;;;;;;;5074448;28;19979;-64
2023/10/18 23:12:33;;;;;;;;;;;;;;;;;;5075014;28;19912;-64
2023/10/18 23:15:19;;;;;;;;;;;;;;;;;;5073876;28;19916;-64
